Time;durP1;ratioP1;P1;durP2;ratioP2;P2;SDS_P1;SDS_P2;PMS_P1;PMS_P2;Temp;Humidity;BMP_temperature;BMP_pressure;BME280_temperature;BME280_humidity;BME280_pressure;Samples;Min_cycle;Max_cycle;Signal;HPM_P1;HPM_P2
2022/04/17 00:00:46;;;;;;;1.47;1.20;;;9.70;66.50;;;;;;5066886;28;20446;-79
2022/04/17 00:03:13;;;;;;;1.80;1.70;;;9.70;66.70;;;;;;5064127;28;20455;-80
2022/04/17 00:05:39;;;;;;;1.43;1.20;;;9.60;66.90;;;;;;5064894;28;20468;-78
2022/04/17 00:08:09;;;;;;;1.50;1.20;;;9.60;67.10;;;;;;5064494;28;20697;-79
2022/04/17 00:10:36;;;;;;;1.43;1.13;;;9.60;67.30;;;;;;5059008;28;20469;-77
2022/04/17 00:13:04;;;;;;;1.43;1.10;;;9.50;67.50;;;;;;5065934;28;20576;-78
2022/04/17 00:15:31;;;;;;;1.40;1.13;;;9.50;67.80;;;;;;5057048;28;20494;-77
2022/04/17 00:17:57;;;;;;;1.43;1.10;;;9.50;67.90;;;;;;5058905;28;20454;-76
2022/04/17 00:20:24;;;;;;;1.40;1.10;;;9.40;68.00;;;;;;5079455;28;20457;-79
2022/04/17 00:22:51;;;;;;;1.50;1.07;;;9.40;68.10;;;;;;5071492;28;20459;-79
2022/04/17 00:25:19;;;;;;;1.50;1.10;;;9.40;68.40;;;;;;5059917;28;20485;-77
2022/04/17 00:27:46;;;;;;;1.50;1.20;;;9.30;68.40;;;;;;5061793;28;20501;-81
2022/04/17 00:30:13;;;;;;;1.60;1.50;;;9.30;68.60;;;;;;5064544;28;20466;-79
2022/04/17 00:32:40;;;;;;;1.50;1.30;;;9.30;68.90;;;;;;5060600;28;20539;-76
2022/04/17 00:35:09;;;;;;;1.47;1.20;;;9.20;69.10;;;;;;5059237;28;20478;-76
2022/04/17 00:37:37;;;;;;;1.50;1.30;;;9.20;69.20;;;;;;5070781;28;20481;-77
2022/04/17 00:40:06;;;;;;;1.40;1.20;;;9.20;69.40;;;;;;5076038;28;20469;-79
2022/04/17 00:42:35;;;;;;;1.50;1.27;;;9.20;69.50;;;;;;5065378;28;20469;-77
2022/04/17 00:45:03;;;;;;;1.47;1.20;;;9.10;69.70;;;;;;5067506;28;20493;-79
2022/04/17 00:47:30;;;;;;;1.43;1.20;;;9.10;69.90;;;;;;5065552;28;20538;-76
2022/04/17 00:49:57;;;;;;;1.43;1.13;;;9.10;69.90;;;;;;5072305;28;20463;-80
2022/04/17 00:52:24;;;;;;;1.50;1.10;;;9.10;70.10;;;;;;5074489;28;20488;-76
2022/04/17 00:54:53;;;;;;;1.50;1.33;;;9.10;70.10;;;;;;5080627;28;20778;-77
2022/04/17 00:57:21;;;;;;;1.40;1.10;;;9.10;70.20;;;;;;5070208;28;20453;-76
2022/04/17 00:59:50;;;;;;;1.47;1.20;;;9.00;70.40;;;;;;5068422;28;20459;-77
2022/04/17 01:02:17;;;;;;;1.47;1.20;;;9.00;70.50;;;;;;5081972;28;20467;-79
2022/04/17 01:04:45;;;;;;;4.50;4.10;;;9.00;70.80;;;;;;5069681;28;20478;-79
2022/04/17 01:07:12;;;;;;;1.40;1.10;;;9.00;70.80;;;;;;5054971;28;20483;-77
2022/04/17 01:09:40;;;;;;;1.40;1.10;;;9.00;70.90;;;;;;5069548;28;20466;-79
2022/04/17 01:12:10;;;;;;;1.43;1.10;;;9.00;71.10;;;;;;5068154;28;20490;-76
2022/04/17 01:14:38;;;;;;;1.50;1.10;;;9.00;71.20;;;;;;5092851;28;20840;-78
2022/04/17 01:17:07;;;;;;;1.43;1.10;;;9.00;71.40;;;;;;5069822;28;20542;-77
2022/04/17 01:19:37;;;;;;;1.50;1.20;;;9.00;71.40;;;;;;5066441;28;20468;-77
2022/04/17 01:22:06;;;;;;;1.50;1.20;;;9.00;71.70;;;;;;5068844;28;20505;-77
2022/04/17 01:27:19;;;;;;;1.50;1.20;;;9.00;71.80;;;;;;5069325;28;20448;-78
2022/04/17 01:29:47;;;;;;;1.50;1.40;;;9.00;71.90;;;;;;5063873;28;20822;-79
2022/04/17 01:32:15;;;;;;;1.50;1.10;;;9.00;72.20;;;;;;5071159;28;20457;-76
2022/04/17 01:34:43;;;;;;;1.40;1.20;;;8.90;72.30;;;;;;5063542;28;21034;-77
2022/04/17 01:37:11;;;;;;;1.50;1.20;;;8.90;72.40;;;;;;5069202;28;20576;-80
2022/04/17 01:39:39;;;;;;;1.50;1.17;;;8.90;72.40;;;;;;5059074;28;20476;-77
2022/04/17 01:42:06;;;;;;;1.47;1.10;;;8.90;72.50;;;;;;5064916;28;20458;-76
2022/04/17 01:44:33;;;;;;;1.50;1.20;;;8.80;72.70;;;;;;5064004;28;20493;-77
2022/04/17 01:47:02;;;;;;;1.47;1.27;;;8.80;72.70;;;;;;5066200;28;20527;-77
2022/04/17 01:49:29;;;;;;;1.47;1.20;;;8.80;72.80;;;;;;5066172;28;20813;-77
2022/04/17 01:51:56;;;;;;;1.40;1.10;;;8.80;72.90;;;;;;5092928;28;20474;-81
2022/04/17 01:54:26;;;;;;;1.40;1.10;;;8.70;73.00;;;;;;5064105;28;20482;-77
2022/04/17 01:56:53;;;;;;;1.50;1.10;;;8.70;73.10;;;;;;5065453;28;20926;-79
2022/04/17 01:59:22;;;;;;;1.43;1.20;;;8.70;73.40;;;;;;5076145;28;20544;-76
2022/04/17 02:01:50;;;;;;;1.47;1.20;;;8.60;73.60;;;;;;5072631;28;20458;-78
2022/04/17 02:04:17;;;;;;;1.40;1.10;;;8.60;73.90;;;;;;5075319;28;20486;-77
2022/04/17 02:06:44;;;;;;;1.50;1.30;;;8.50;73.90;;;;;;5074105;28;20462;-77
2022/04/17 02:09:12;;;;;;;1.50;1.20;;;8.50;74.30;;;;;;5082639;28;20473;-78
2022/04/17 02:11:42;;;;;;;1.43;1.10;;;8.40;74.70;;;;;;5057736;28;20466;-76
2022/04/17 02:14:09;;;;;;;1.40;1.10;;;8.40;74.50;;;;;;5067232;28;20915;-80
2022/04/17 02:16:36;;;;;;;1.50;1.20;;;8.40;75.00;;;;;;5068259;28;20472;-78
2022/04/17 02:19:03;;;;;;;1.50;1.20;;;8.40;75.20;;;;;;5060989;28;20489;-79
2022/04/17 02:21:31;;;;;;;1.50;1.30;;;8.30;75.00;;;;;;5086542;28;20970;-78
2022/04/17 02:23:59;;;;;;;1.47;1.20;;;8.30;75.60;;;;;;5074279;28;20520;-75
2022/04/17 02:26:26;;;;;;;1.43;1.20;;;8.30;75.80;;;;;;5071445;28;20826;-79
2022/04/17 02:28:56;;;;;;;1.43;1.20;;;8.20;75.80;;;;;;5063593;28;20473;-79
2022/04/17 02:31:24;;;;;;;1.50;1.30;;;8.10;76.20;;;;;;5062092;28;20457;-79
2022/04/17 02:33:51;;;;;;;1.50;1.20;;;8.10;75.90;;;;;;5062486;28;20474;-77
2022/04/17 02:36:18;;;;;;;1.50;1.20;;;8.00;76.70;;;;;;5062046;28;20461;-76
2022/04/17 02:38:45;;;;;;;1.50;1.20;;;8.00;77.20;;;;;;5068601;28;20513;-76
2022/04/17 02:41:12;;;;;;;1.50;1.20;;;7.90;77.90;;;;;;5074055;28;20474;-76
2022/04/17 02:43:39;;;;;;;1.50;1.20;;;7.80;78.20;;;;;;5064192;28;20512;-77
2022/04/17 02:46:08;;;;;;;1.50;1.17;;;7.80;78.30;;;;;;5062699;28;20469;-78
2022/04/17 02:48:34;;;;;;;1.43;1.20;;;7.70;78.20;;;;;;5074425;28;20556;-79
2022/04/17 02:51:02;;;;;;;1.47;1.20;;;7.70;78.00;;;;;;5069820;28;20698;-77
2022/04/17 02:53:30;;;;;;;1.50;1.20;;;7.70;77.70;;;;;;5073252;28;20837;-79
2022/04/17 02:55:57;;;;;;;1.47;1.10;;;7.60;78.00;;;;;;5051448;28;20461;-76
2022/04/17 02:58:24;;;;;;;1.50;1.30;;;7.70;77.90;;;;;;5074579;28;20486;-76
2022/04/17 03:06:21;;;;;;;1.50;1.20;;;7.60;78.30;;;;;;5062307;28;20460;-77
2022/04/17 03:08:48;;;;;;;2.33;2.13;;;7.60;78.10;;;;;;5060265;28;20497;-76
2022/04/17 03:11:16;;;;;;;1.50;1.30;;;7.60;78.40;;;;;;5060309;28;20491;-78
2022/04/17 03:13:42;;;;;;;1.43;1.20;;;7.60;78.50;;;;;;5058473;28;20490;-76
2022/04/17 03:16:11;;;;;;;1.50;1.30;;;7.50;79.10;;;;;;5059651;28;20534;-76
2022/04/17 03:18:39;;;;;;;1.50;1.20;;;7.50;79.50;;;;;;5074065;28;20946;-80
2022/04/17 03:21:06;;;;;;;1.47;1.27;;;7.50;79.70;;;;;;5073947;28;20479;-75
2022/04/17 03:23:33;;;;;;;1.50;1.40;;;7.40;79.80;;;;;;5069585;28;20482;-79
2022/04/17 03:26:00;;;;;;;1.47;1.20;;;7.40;80.00;;;;;;5059269;28;20465;-77
2022/04/17 03:28:27;;;;;;;1.50;1.20;;;7.40;80.00;;;;;;5056358;28;20454;-77
2022/04/17 03:30:54;;;;;;;1.50;1.20;;;7.40;79.90;;;;;;5059619;28;20562;-77
2022/04/17 03:33:21;;;;;;;1.47;1.20;;;7.40;79.80;;;;;;5058684;28;20458;-77
2022/04/17 03:35:49;;;;;;;1.50;1.20;;;7.40;79.90;;;;;;5062988;28;20723;-78
2022/04/17 03:38:16;;;;;;;1.43;1.20;;;7.40;80.10;;;;;;5053749;28;20490;-76
2022/04/17 03:40:43;;;;;;;1.50;1.30;;;7.30;80.20;;;;;;5053880;28;20664;-77
2022/04/17 03:43:10;;;;;;;2.03;1.93;;;7.30;80.20;;;;;;5060313;28;20462;-77
2022/04/17 03:45:37;;;;;;;1.50;1.20;;;7.20;80.20;;;;;;5058301;28;20497;-75
2022/04/17 03:48:05;;;;;;;1.47;1.20;;;7.20;80.10;;;;;;5064146;28;20454;-78
2022/04/17 03:50:32;;;;;;;1.47;1.20;;;7.20;80.00;;;;;;5075501;28;20483;-77
2022/04/17 03:53:00;;;;;;;1.50;1.20;;;7.10;80.20;;;;;;5070515;28;20462;-77
2022/04/17 03:55:27;;;;;;;1.50;1.20;;;7.10;80.30;;;;;;5057249;28;20579;-77
2022/04/17 03:57:54;;;;;;;1.50;1.30;;;7.10;80.00;;;;;;5068328;28;20486;-77
2022/04/17 04:00:21;;;;;;;1.50;1.33;;;7.10;80.00;;;;;;5056377;28;20462;-76
2022/04/17 04:02:51;;;;;;;1.50;1.30;;;7.10;79.80;;;;;;5060134;28;20462;-77
2022/04/17 04:05:20;;;;;;;1.50;1.30;;;7.10;79.90;;;;;;5061488;28;20470;-78
2022/04/17 04:07:47;;;;;;;1.50;1.20;;;7.10;80.20;;;;;;5060392;28;20547;-77
2022/04/17 04:10:16;;;;;;;2.10;1.87;;;7.10;80.50;;;;;;5058287;28;20530;-78
2022/04/17 04:12:43;;;;;;;1.50;1.20;;;7.00;80.60;;;;;;5063576;28;20486;-78
2022/04/17 04:15:10;;;;;;;1.50;1.20;;;7.00;80.60;;;;;;5056069;28;21015;-77
2022/04/17 04:17:37;;;;;;;1.50;1.30;;;7.00;80.80;;;;;;5055592;28;20486;-76
2022/04/17 04:20:06;;;;;;;1.50;1.40;;;7.00;80.80;;;;;;5064073;28;20595;-80
2022/04/17 04:22:33;;;;;;;1.50;1.30;;;7.00;80.60;;;;;;5083638;28;20528;-77
2022/04/17 04:25:00;;;;;;;1.50;1.27;;;7.00;80.50;;;;;;5061421;28;20528;-78
2022/04/17 04:30:12;;;;;;;1.50;1.20;;;7.00;80.90;;;;;;5068190;28;20491;-78
2022/04/17 04:32:39;;;;;;;1.50;1.30;;;7.00;81.00;;;;;;5060687;28;20454;-79
2022/04/17 04:35:09;;;;;;;1.50;1.30;;;6.90;81.20;;;;;;5054873;28;20478;-77
2022/04/17 04:37:36;;;;;;;1.50;1.40;;;6.90;81.50;;;;;;5052598;28;20890;-80
2022/04/17 04:40:05;;;;;;;1.50;1.37;;;6.80;81.80;;;;;;5060320;28;20490;-77
2022/04/17 04:42:33;;;;;;;1.50;1.33;;;6.80;82.00;;;;;;5063232;28;20515;-80
2022/04/17 04:47:45;;;;;;;1.50;1.30;;;6.70;82.70;;;;;;5066604;28;20515;-77
2022/04/17 04:50:11;;;;;;;1.50;1.30;;;6.70;82.80;;;;;;5067145;28;20465;-75
2022/04/17 04:52:38;;;;;;;1.50;1.30;;;6.70;82.70;;;;;;5080797;28;20466;-75
2022/04/17 04:55:06;;;;;;;1.50;1.37;;;6.80;82.80;;;;;;5059224;28;20513;-75
2022/04/17 04:57:36;;;;;;;1.50;1.23;;;6.80;82.80;;;;;;5063654;28;20493;-74
2022/04/17 05:00:05;;;;;;;1.47;1.20;;;6.80;82.50;;;;;;5056459;28;20946;-74
2022/04/17 05:02:32;;;;;;;1.47;1.30;;;6.90;82.30;;;;;;5057853;28;20607;-75
2022/04/17 05:05:00;;;;;;;1.50;1.30;;;6.90;82.20;;;;;;5063709;28;20482;-74
2022/04/17 05:07:27;;;;;;;1.47;1.20;;;6.90;82.20;;;;;;5061876;28;20462;-75
2022/04/17 05:09:53;;;;;;;1.50;1.40;;;7.00;82.30;;;;;;5059181;28;20497;-74
2022/04/17 05:12:22;;;;;;;1.47;1.27;;;7.00;82.10;;;;;;5059216;28;20476;-75
2022/04/17 05:14:50;;;;;;;1.47;1.20;;;7.10;81.90;;;;;;5074926;28;20537;-75
2022/04/17 05:17:17;;;;;;;1.43;1.20;;;7.10;81.60;;;;;;5064551;28;20458;-75
2022/04/17 05:19:43;;;;;;;1.50;1.37;;;7.20;81.40;;;;;;5062069;28;20460;-75
2022/04/17 05:22:15;;;;;;;1.50;1.20;;;7.20;81.40;;;;;;5070732;28;20461;-74
2022/04/17 05:24:43;;;;;;;1.50;1.30;;;7.30;81.20;;;;;;5066894;28;20825;-75
2022/04/17 05:27:10;;;;;;;1.50;1.30;;;7.30;81.30;;;;;;5061821;28;21032;-74
2022/04/17 05:29:36;;;;;;;1.50;1.30;;;7.40;81.20;;;;;;5053700;28;20563;-75
2022/04/17 05:32:05;;;;;;;1.50;1.30;;;7.40;81.00;;;;;;5060179;28;20973;-75
2022/04/17 05:34:35;;;;;;;1.50;1.30;;;7.50;80.90;;;;;;5064148;28;20490;-75
2022/04/17 05:37:03;;;;;;;1.50;1.20;;;7.60;81.00;;;;;;5064134;28;20461;-75
2022/04/17 05:39:30;;;;;;;1.50;1.30;;;7.70;80.90;;;;;;5057829;28;20494;-74
2022/04/17 05:42:11;;;;;;;1.47;1.20;;;7.80;80.70;;;;;;5053321;28;20462;-76
2022/04/17 05:44:38;;;;;;;1.50;1.20;;;7.90;80.20;;;;;;5058325;28;20641;-76
2022/04/17 05:47:06;;;;;;;1.50;1.30;;;8.10;79.90;;;;;;5055176;28;20983;-75
2022/04/17 05:49:33;;;;;;;1.50;1.30;;;8.20;79.70;;;;;;5057526;28;20460;-76
2022/04/17 05:52:00;;;;;;;1.47;1.10;;;8.40;79.40;;;;;;5066865;28;20539;-75
2022/04/17 05:54:27;;;;;;;1.50;1.20;;;8.60;79.30;;;;;;5070539;28;20517;-75
2022/04/17 05:56:54;;;;;;;1.40;1.20;;;8.80;78.60;;;;;;5062274;28;20557;-75
2022/04/17 05:59:22;;;;;;;1.50;1.30;;;8.80;78.20;;;;;;5055531;28;20482;-77
2022/04/17 06:01:48;;;;;;;1.50;1.20;;;9.00;78.20;;;;;;5067467;28;20524;-75
2022/04/17 06:04:16;;;;;;;1.43;1.20;;;9.10;77.50;;;;;;5051827;28;20482;-75
2022/04/17 06:06:44;;;;;;;1.50;1.20;;;9.10;77.40;;;;;;5054448;28;20493;-75
2022/04/17 06:09:11;;;;;;;1.50;1.20;;;9.30;77.50;;;;;;5051502;28;20553;-75
2022/04/17 06:11:38;;;;;;;1.43;1.10;;;9.50;76.80;;;;;;5056030;28;20453;-76
2022/04/17 06:14:05;;;;;;;1.50;1.20;;;9.60;76.60;;;;;;5051126;28;20551;-75
2022/04/17 06:16:32;;;;;;;1.50;1.17;;;9.70;76.30;;;;;;5048753;28;20493;-75
2022/04/17 06:18:59;;;;;;;1.50;1.20;;;9.80;76.20;;;;;;5069260;28;21359;-74
2022/04/17 06:21:28;;;;;;;1.47;1.10;;;9.80;76.10;;;;;;5069860;28;20461;-75
2022/04/17 06:23:55;;;;;;;1.47;1.10;;;9.80;76.10;;;;;;5067091;28;20508;-74
2022/04/17 06:26:22;;;;;;;1.50;1.20;;;9.90;75.60;;;;;;5055700;28;21006;-76
2022/04/17 06:28:48;;;;;;;1.47;1.10;;;10.00;75.50;;;;;;5052586;28;20470;-76
2022/04/17 06:31:15;;;;;;;1.47;1.10;;;10.10;75.10;;;;;;5058799;28;20458;-75
2022/04/17 06:33:42;;;;;;;1.47;1.10;;;10.30;74.80;;;;;;5063423;28;21247;-75
2022/04/17 06:36:09;;;;;;;1.47;1.10;;;10.20;74.40;;;;;;5068364;28;20469;-74
2022/04/17 06:38:37;;;;;;;1.43;1.10;;;10.30;74.20;;;;;;5050957;28;20482;-74
2022/04/17 06:41:03;;;;;;;1.43;1.03;;;10.30;74.50;;;;;;5057086;28;21001;-77
2022/04/17 06:43:30;;;;;;;1.50;1.10;;;10.40;74.40;;;;;;5052342;28;20459;-76
2022/04/17 06:45:57;;;;;;;1.43;1.10;;;10.70;74.00;;;;;;5054878;28;20660;-75
2022/04/17 06:48:25;;;;;;;1.50;1.10;;;10.80;73.10;;;;;;5052324;28;20465;-75
2022/04/17 06:50:53;;;;;;;1.50;1.00;;;10.90;73.40;;;;;;5070931;28;21307;-75
2022/04/17 06:53:20;;;;;;;1.43;1.00;;;11.00;73.20;;;;;;5063794;28;20462;-75
2022/04/17 06:55:49;;;;;;;1.43;1.03;;;11.10;72.50;;;;;;5061253;28;20462;-75
2022/04/17 06:58:15;;;;;;;1.43;1.00;;;11.10;72.00;;;;;;5052678;28;20517;-76
2022/04/17 07:00:42;;;;;;;1.47;1.07;;;11.10;72.10;;;;;;5051261;28;20474;-75
2022/04/17 07:03:09;;;;;;;1.50;1.07;;;11.10;72.50;;;;;;5056869;28;20462;-75
2022/04/17 07:05:36;;;;;;;1.50;1.10;;;11.40;72.40;;;;;;5057151;28;20509;-75
2022/04/17 07:08:05;;;;;;;1.43;1.00;;;11.50;71.70;;;;;;5056369;28;20462;-76
2022/04/17 07:10:33;;;;;;;1.50;1.10;;;11.50;71.50;;;;;;5049635;28;20478;-76
2022/04/17 07:13:02;;;;;;;1.43;1.00;;;11.70;71.30;;;;;;5062091;28;20488;-75
2022/04/17 07:15:28;;;;;;;1.50;1.10;;;11.80;70.80;;;;;;5057533;28;20474;-74
2022/04/17 07:17:56;;;;;;;1.50;1.10;;;11.90;70.50;;;;;;5053980;28;20471;-77
2022/04/17 07:20:25;;;;;;;1.43;1.00;;;12.00;70.10;;;;;;5056914;28;20979;-76
2022/04/17 07:22:52;;;;;;;1.43;1.00;;;12.10;70.10;;;;;;5063404;28;20816;-75
2022/04/17 07:25:20;;;;;;;1.50;1.00;;;12.30;69.90;;;;;;5057706;28;20476;-76
2022/04/17 07:27:48;;;;;;;1.50;1.00;;;12.40;69.60;;;;;;5051852;28;20458;-75
2022/04/17 07:30:17;;;;;;;1.50;1.00;;;12.30;68.90;;;;;;5050455;28;20489;-76
2022/04/17 07:32:47;;;;;;;1.50;1.00;;;12.40;69.60;;;;;;5059608;28;20457;-75
2022/04/17 07:35:15;;;;;;;1.50;1.10;;;12.70;69.10;;;;;;5052072;28;20497;-76
2022/04/17 07:37:47;;;;;;;1.47;1.00;;;12.90;68.70;;;;;;5054291;28;20467;-75
2022/04/17 07:40:15;;;;;;;1.47;1.00;;;13.10;68.50;;;;;;5056572;28;20497;-75
2022/04/17 07:42:43;;;;;;;1.43;1.00;;;13.20;67.50;;;;;;5054782;28;20459;-75
2022/04/17 07:45:11;;;;;;;1.43;0.90;;;13.40;67.80;;;;;;5050536;28;20543;-74
2022/04/17 07:47:39;;;;;;;1.50;1.00;;;13.40;67.10;;;;;;5056761;28;20496;-74
2022/04/17 07:50:08;;;;;;;1.50;1.00;;;13.50;67.00;;;;;;5063341;28;20461;-75
2022/04/17 07:52:35;;;;;;;3.00;2.80;;;13.70;66.90;;;;;;5075252;28;20492;-75
2022/04/17 07:55:03;;;;;;;1.50;1.00;;;13.70;65.50;;;;;;5057009;28;20549;-74
2022/04/17 07:57:52;;;;;;;1.50;1.00;;;13.80;65.70;;;;;;5060369;28;20529;-74
2022/04/17 08:00:22;;;;;;;1.50;1.00;;;13.80;66.00;;;;;;5062917;28;20469;-75
2022/04/17 08:02:55;;;;;;;1.50;1.00;;;14.10;65.50;;;;;;5059964;28;21039;-75
2022/04/17 08:05:22;;;;;;;1.43;1.00;;;14.10;64.80;;;;;;5063834;28;20482;-75
2022/04/17 08:07:49;;;;;;;1.50;1.10;;;14.10;65.40;;;;;;5058697;28;20458;-76
2022/04/17 08:10:16;;;;;;;1.43;1.00;;;14.30;65.60;;;;;;5061738;28;20469;-74
2022/04/17 08:12:44;;;;;;;1.50;1.00;;;14.50;65.10;;;;;;5055518;28;20458;-75
2022/04/17 08:15:11;;;;;;;1.70;1.47;;;14.60;63.70;;;;;;5061352;28;20558;-75
2022/04/17 08:17:38;;;;;;;1.47;0.90;;;14.70;64.20;;;;;;5062442;28;20461;-74
2022/04/17 08:20:07;;;;;;;1.47;1.00;;;14.90;63.50;;;;;;5058911;28;20476;-75
2022/04/17 08:22:34;;;;;;;1.47;0.90;;;15.00;63.20;;;;;;5074405;28;20467;-76
2022/04/17 08:25:01;;;;;;;1.50;1.10;;;15.10;62.60;;;;;;5058015;28;20482;-75
2022/04/17 08:27:28;;;;;;;1.40;0.90;;;15.10;62.40;;;;;;5050600;28;20473;-75
2022/04/17 08:29:54;;;;;;;1.43;1.00;;;15.10;61.70;;;;;;5061488;28;20469;-75
2022/04/17 08:32:21;;;;;;;1.47;0.90;;;15.10;62.10;;;;;;5053714;28;20957;-74
2022/04/17 08:34:48;;;;;;;1.43;0.90;;;15.10;61.90;;;;;;5054248;28;20481;-75
2022/04/17 08:37:16;;;;;;;1.47;1.00;;;15.10;61.90;;;;;;5058052;28;20453;-75
2022/04/17 08:39:43;;;;;;;1.50;1.10;;;15.30;61.00;;;;;;5060865;28;20488;-75
2022/04/17 08:42:12;;;;;;;1.47;0.90;;;15.30;61.10;;;;;;5050087;28;20553;-74
2022/04/17 08:44:45;;;;;;;1.60;1.37;;;15.10;61.10;;;;;;5064279;28;20473;-76
2022/04/17 08:47:12;;;;;;;1.43;0.90;;;15.00;61.60;;;;;;5059067;28;20953;-76
2022/04/17 08:49:40;;;;;;;1.40;0.90;;;15.10;61.70;;;;;;5061328;28;20471;-75
2022/04/17 08:52:15;;;;;;;1.47;1.00;;;15.30;60.80;;;;;;5045390;28;20464;-76
2022/04/17 08:54:43;;;;;;;1.50;1.00;;;15.40;60.60;;;;;;5055918;28;20506;-76
2022/04/17 08:57:10;;;;;;;1.50;1.00;;;15.40;61.40;;;;;;5048972;28;20778;-75
2022/04/17 08:59:37;;;;;;;1.47;0.90;;;15.70;61.20;;;;;;5050554;28;20505;-76
2022/04/17 09:02:10;;;;;;;1.43;0.90;;;15.80;60.20;;;;;;5050921;28;20472;-75
2022/04/17 09:04:37;;;;;;;9.80;1.83;;;15.90;60.30;;;;;;5049750;28;20716;-75
2022/04/17 09:07:06;;;;;;;1.40;0.90;;;16.00;59.90;;;;;;5050694;28;20470;-75
2022/04/17 09:09:34;;;;;;;1.50;0.90;;;16.20;60.90;;;;;;5047202;28;20466;-76
2022/04/17 09:12:02;;;;;;;1.43;0.90;;;16.40;60.30;;;;;;5053190;28;20488;-75
2022/04/17 09:14:29;;;;;;;1.43;1.00;;;16.50;60.00;;;;;;5056938;28;20861;-75
2022/04/17 09:16:56;;;;;;;1.50;1.00;;;16.50;59.30;;;;;;5048335;28;20601;-76
2022/04/17 09:19:26;;;;;;;1.40;0.90;;;16.50;59.10;;;;;;5052098;28;20486;-75
2022/04/17 09:21:55;;;;;;;1.50;1.00;;;16.80;59.70;;;;;;5057670;28;20557;-75
2022/04/17 09:24:24;;;;;;;1.50;1.00;;;17.00;58.90;;;;;;5049549;28;20486;-75
2022/04/17 09:26:53;;;;;;;1.43;1.00;;;17.20;59.20;;;;;;5052650;28;21014;-76
2022/04/17 09:29:23;;;;;;;1.43;0.90;;;17.40;58.30;;;;;;5052347;28;20545;-76
2022/04/17 09:31:56;;;;;;;1.47;0.93;;;17.40;58.40;;;;;;5056745;28;20473;-75
2022/04/17 09:34:23;;;;;;;1.50;0.90;;;17.30;58.30;;;;;;5055878;28;20486;-74
2022/04/17 09:36:56;;;;;;;1.47;0.97;;;17.30;59.00;;;;;;5059948;28;20480;-76
2022/04/17 09:39:22;;;;;;;1.47;1.00;;;17.40;59.20;;;;;;5061849;28;20511;-75
2022/04/17 09:41:54;;;;;;;1.47;0.90;;;17.60;58.40;;;;;;5053468;28;20461;-75
2022/04/17 09:44:37;;;;;;;1.47;1.00;;;17.70;57.30;;;;;;5050031;28;20508;-75
2022/04/17 09:47:05;;;;;;;1.50;0.93;;;17.60;57.70;;;;;;5051521;28;20502;-75
2022/04/17 09:49:32;;;;;;;1.47;1.00;;;17.50;57.50;;;;;;5053014;28;20456;-76
2022/04/17 09:52:09;;;;;;;1.50;0.90;;;17.60;57.30;;;;;;5053644;28;20589;-76
2022/04/17 09:54:36;;;;;;;1.47;0.90;;;17.60;59.00;;;;;;5050753;28;20486;-75
2022/04/17 09:57:04;;;;;;;1.40;0.90;;;17.60;56.70;;;;;;5052117;28;20465;-76
2022/04/17 09:59:32;;;;;;;1.40;0.90;;;17.80;56.90;;;;;;5060416;28;20516;-75
2022/04/17 10:02:00;;;;;;;1.50;1.10;;;17.90;56.90;;;;;;5051766;28;20548;-75
2022/04/17 10:04:27;;;;;;;1.43;0.90;;;18.30;56.80;;;;;;5054498;28;20498;-76
2022/04/17 10:06:56;;;;;;;1.50;0.90;;;18.40;55.60;;;;;;5062568;28;20467;-75
2022/04/17 10:09:23;;;;;;;1.47;0.90;;;18.60;55.70;;;;;;5060057;28;20505;-77
2022/04/17 10:11:51;;;;;;;1.40;0.90;;;18.50;54.80;;;;;;5058972;28;20711;-78
2022/04/17 10:14:18;;;;;;;1.40;0.90;;;18.70;55.70;;;;;;5054767;28;20541;-74
2022/04/17 10:16:48;;;;;;;1.40;0.90;;;18.70;55.50;;;;;;5061178;28;20485;-77
2022/04/17 10:19:19;;;;;;;1.43;0.90;;;18.90;55.40;;;;;;5071686;28;20532;-75
2022/04/17 10:21:47;;;;;;;1.43;0.90;;;18.80;55.00;;;;;;5072073;28;20469;-78
2022/04/17 10:24:16;;;;;;;1.40;0.90;;;19.00;55.50;;;;;;5059676;28;20560;-76
2022/04/17 10:26:47;;;;;;;1.47;0.90;;;19.10;55.20;;;;;;5058215;28;20852;-76
2022/04/17 10:29:21;;;;;;;1.43;0.90;;;19.30;54.10;;;;;;5063970;28;20962;-79
2022/04/17 10:32:09;;;;;;;1.50;1.00;;;19.30;54.40;;;;;;5061120;28;20470;-80
2022/04/17 10:34:59;;;;;;;1.40;0.90;;;19.20;53.60;;;;;;5063266;28;21267;-78
2022/04/17 10:38:03;;;;;;;1.50;1.10;;;19.30;53.90;;;;;;5056968;28;20466;-76
2022/04/17 10:40:31;;;;;;;1.43;0.90;;;19.30;54.00;;;;;;5058727;28;20486;-75
2022/04/17 10:43:00;;;;;;;1.43;0.90;;;19.70;54.70;;;;;;5061983;28;20910;-77
2022/04/17 10:45:31;;;;;;;1.50;0.90;;;19.80;54.00;;;;;;5055397;28;20565;-81
2022/04/17 10:48:09;;;;;;;1.50;1.00;;;19.70;53.70;;;;;;5060384;28;20746;-76
2022/04/17 10:50:44;;;;;;;1.47;0.90;;;19.50;53.80;;;;;;5060970;28;20477;-80
2022/04/17 10:53:24;;;;;;;1.47;0.90;;;19.70;55.60;;;;;;5059586;28;20461;-76
2022/04/17 10:56:04;;;;;;;1.47;0.90;;;19.80;54.70;;;;;;5057724;28;20804;-76
2022/04/17 10:58:36;;;;;;;1.47;0.90;;;20.10;53.50;;;;;;5065119;28;20496;-75
2022/04/17 11:01:02;;;;;;;1.70;1.30;;;20.40;52.70;;;;;;5055592;28;20484;-74
2022/04/17 11:03:29;;;;;;;1.47;0.80;;;20.50;51.90;;;;;;5052378;28;20500;-76
2022/04/17 11:08:56;;;;;;;1.47;0.90;;;20.80;51.30;;;;;;5052222;28;20549;-75
2022/04/17 11:11:23;;;;;;;1.50;1.00;;;20.90;51.30;;;;;;5056465;28;20482;-77
2022/04/17 11:14:10;;;;;;;1.47;0.90;;;21.20;51.60;;;;;;5061284;28;20514;-76
2022/04/17 11:16:45;;;;;;;1.47;0.90;;;21.60;51.50;;;;;;5061244;28;20763;-77
2022/04/17 11:19:13;;;;;;;1.43;0.90;;;21.80;52.50;;;;;;5058796;28;21045;-79
2022/04/17 11:21:45;;;;;;;1.43;0.90;;;21.90;50.20;;;;;;5049915;28;20649;-76
2022/04/17 11:24:12;;;;;;;1.47;0.90;;;21.50;51.50;;;;;;5051967;28;20481;-78
2022/04/17 11:27:08;;;;;;;1.50;0.90;;;21.20;50.40;;;;;;5056634;28;21012;-78
2022/04/17 11:29:40;;;;;;;1.47;0.90;;;21.30;50.80;;;;;;5059368;28;20458;-79
2022/04/17 11:32:46;;;;;;;1.50;1.10;;;21.40;50.60;;;;;;5057535;28;20500;-78
2022/04/17 11:35:15;;;;;;;1.50;1.00;;;21.50;51.10;;;;;;5044034;28;20482;-77
2022/04/17 11:37:51;;;;;;;1.50;1.00;;;21.30;50.20;;;;;;5050196;28;20839;-81
2022/04/17 11:40:19;;;;;;;1.50;0.90;;;21.30;49.90;;;;;;5058898;28;20552;-78
2022/04/17 11:42:47;;;;;;;1.50;1.10;;;21.40;50.00;;;;;;5052324;28;20466;-75
2022/04/17 11:45:16;;;;;;;1.47;0.90;;;21.30;50.40;;;;;;5049833;28;20477;-77
2022/04/17 11:47:44;;;;;;;1.43;0.93;;;21.30;49.90;;;;;;5056193;28;20516;-75
2022/04/17 11:50:12;;;;;;;1.43;0.90;;;21.50;49.90;;;;;;5064317;28;20844;-80
2022/04/17 11:52:39;;;;;;;1.40;0.90;;;21.60;49.80;;;;;;5055741;28;20569;-81
2022/04/17 11:55:09;;;;;;;1.43;0.90;;;21.70;50.00;;;;;;5060254;28;20485;-80
2022/04/17 11:57:36;;;;;;;1.43;0.87;;;21.70;49.10;;;;;;5057382;28;20465;-77
2022/04/17 12:00:05;;;;;;;1.50;0.97;;;21.50;49.90;;;;;;5058543;28;20481;-76
2022/04/17 12:02:32;;;;;;;1.40;0.90;;;21.40;50.30;;;;;;5048502;28;20487;-76
2022/04/17 12:05:08;;;;;;;1.47;0.90;;;21.50;50.70;;;;;;5054002;28;20478;-78
2022/04/17 12:07:35;;;;;;;1.43;0.80;;;21.80;50.10;;;;;;5058794;28;20849;-78
2022/04/17 12:10:08;;;;;;;1.47;0.90;;;22.20;48.50;;;;;;5057022;28;20473;-77
2022/04/17 12:12:36;;;;;;;1.43;0.90;;;22.30;49.00;;;;;;5052221;28;21056;-76
2022/04/17 12:15:04;;;;;;;1.40;0.90;;;22.10;48.60;;;;;;5056501;28;20482;-79
2022/04/17 12:17:32;;;;;;;1.40;0.90;;;21.90;49.40;;;;;;5057338;28;21090;-77
2022/04/17 12:19:59;;;;;;;1.40;0.80;;;22.00;50.10;;;;;;5062082;28;20488;-76
2022/04/17 12:22:26;;;;;;;1.47;0.90;;;22.20;50.60;;;;;;5055463;28;20599;-76
2022/04/17 12:24:53;;;;;;;1.40;0.90;;;22.60;49.20;;;;;;5058195;28;20477;-79
2022/04/17 12:27:22;;;;;;;1.40;0.90;;;22.60;47.50;;;;;;5063829;28;20461;-79
2022/04/17 12:29:50;;;;;;;1.40;0.90;;;22.40;48.20;;;;;;5058431;28;20466;-76
2022/04/17 12:32:20;;;;;;;1.47;0.80;;;22.30;48.60;;;;;;5060953;28;20503;-75
2022/04/17 12:34:57;;;;;;;1.50;0.80;;;22.30;47.70;;;;;;5048648;28;20482;-77
2022/04/17 12:37:28;;;;;;;1.43;0.90;;;22.30;48.70;;;;;;5054796;28;20460;-76
2022/04/17 12:40:08;;;;;;;1.43;0.80;;;22.60;48.00;;;;;;5056436;28;21016;-77
2022/04/17 12:42:36;;;;;;;1.47;0.90;;;22.50;47.30;;;;;;5054657;28;20469;-77
2022/04/17 12:45:03;;;;;;;1.40;0.80;;;22.40;48.70;;;;;;5062158;28;20536;-75
2022/04/17 12:47:30;;;;;;;1.40;0.90;;;22.40;47.40;;;;;;5054494;28;20465;-75
2022/04/17 12:50:03;;;;;;;1.40;0.90;;;22.40;48.30;;;;;;5061344;28;20456;-74
2022/04/17 12:52:30;;;;;;;1.43;0.90;;;22.20;47.30;;;;;;5073577;28;20538;-77
2022/04/17 12:54:59;;;;;;;1.50;1.10;;;22.20;48.50;;;;;;5058060;28;21080;-76
2022/04/17 12:57:26;;;;;;;1.70;1.60;;;22.20;48.00;;;;;;5057829;28;20556;-77
2022/04/17 12:59:55;;;;;;;1.40;0.80;;;22.10;49.00;;;;;;5065863;28;20460;-79
2022/04/17 13:02:26;;;;;;;1.50;0.90;;;22.20;47.40;;;;;;5064578;22;20460;-80
2022/04/17 13:04:54;;;;;;;1.40;0.90;;;22.20;48.10;;;;;;5024779;28;20459;-81
2022/04/17 13:07:21;;;;;;;1.40;0.80;;;22.20;47.00;;;;;;5019903;28;20463;-81
2022/04/17 13:09:52;;;;;;;1.40;0.80;;;22.20;47.80;;;;;;5028095;28;20543;-81
2022/04/17 13:12:32;;;;;;;1.40;0.90;;;22.10;48.30;;;;;;5026605;28;20486;-81
2022/04/17 13:15:02;;;;;;;1.40;0.83;;;22.30;49.40;;;;;;5029949;28;20466;-81
2022/04/17 13:17:29;;;;;;;1.40;0.80;;;22.60;50.90;;;;;;5030124;28;20470;-81